SCC: Laguna Seca: GS practice three times

Pos Num Class Team Time Gap To 1st Speed --- --- ----- ------------------------------ ---------- ------- ------- ------- 1. 97 GS Turner Motorsport 1:36.687 83.329 2. 99...

Pos Num Class Team                                 Time     Gap  To 1st   Speed
--- --- ----- ------------------------------ ---------- ------- ------- -------
 1.  97 GS    Turner Motorsport                1:36.687                  83.329
 2.  99 GS    Automatic Racing                 1:37.026   0.339   0.339  83.038
 3.  80 GS    Kinetic Motorsports              1:37.339   0.313   0.652  82.771
 4.  90 GS    Automatic Racing                 1:37.430   0.091   0.743  82.693
 5.  55 GS    Hyper Sport                      1:37.516   0.086   0.829  82.620
 6.  79 GS    Kinetic Motorsports              1:37.525   0.009   0.838  82.613
 7.  59 GS    Rehagen Racing                   1:37.609   0.084   0.922  82.542
 8.  28 GS    Fall-Line Motorsports            1:37.753   0.144   1.066  82.420
 9.  09 GS    Automatic Racing                 1:37.763   0.010   1.076  82.412
10.  20 GS    Horsepower Ranch                 1:37.797   0.034   1.110  82.383
11.  26 GS    Fiorano/C-MAX Racing             1:37.815   0.018   1.128  82.368
12.  38 GS    BGB Motorsports                  1:37.963   0.148   1.276  82.243
13.  77 GS    Blackforest Motorsports          1:37.990   0.027   1.303  82.221
14.  25 GS    Fiorano/C-MAX Racing             1:38.052   0.062   1.365  82.169
15.   5 GS    Blackforest Motorsports          1:38.170   0.118   1.483  82.070
16.   4 GS    Blackforest Motorsports          1:38.252   0.082   1.565  82.001
17.  41 GS    TRG                              1:38.264   0.012   1.577  81.991
18.  33 GS    Playboy Racing                   1:38.353   0.089   1.666  81.917
19.  49 GS    Marcus Motorsports               1:38.365   0.012   1.678  81.907
20.  91 GS    Automatic Racing                 1:38.466   0.101   1.779  81.823
21.  60 GS    Horsepower Ranch                 1:38.551   0.085   1.864  81.753
22.  46 GS    Fall-Line Motorsports            1:38.651   0.100   1.964  81.670
23.  17 GS    Team Centurion                   1:38.662   0.011   1.975  81.661
24.  37 GS    JBS Racing                       1:38.787   0.125   2.100  81.557
25.  96 GS    Turner Motorsport                1:38.926   0.139   2.239  81.443
26.  83 GS    BGB Motorsports                  1:38.938   0.012   2.251  81.433
27.  88 GS    LNS Motorsport                   1:38.942   0.004   2.255  81.430
28.  43 GS    ASC Motorsports                  1:38.962   0.020   2.275  81.413
29. 154 GS    Jim Click Racing                 1:39.143   0.181   2.456  81.264
30.  40 GS    TRG                              1:39.210   0.067   2.523  81.210
31.  11 GS    Southwest Racers Group           1:39.398   0.188   2.711  81.056
32.  87 GS    LNS Motorsport                   1:39.536   0.138   2.849  80.944
33.  54 GS    Hyper Sport                      1:40.069   0.533   3.382  80.512
34. 150 GS    Jim Click Racing                 1:40.197   0.128   3.510  80.410
35.  42 GS    TRG                              1:40.356   0.159   3.669  80.282
36. 137 GS    JBS Motorsports                  1:40.495   0.139   3.808  80.171
37.  89 GS    LNS Motorsport                   1:41.094   0.599   4.407  79.696
38.   6 GS    Blackforest Motorsports          1:41.273   0.179   4.586  79.555
39.  52 GS    Rehagen Racing                   1:41.670   0.397   4.983  79.245
40.  36 GS    NoHotWire Racing                 1:47.049   5.379  10.362  75.263
41.  39 GS    TRG                              1:57.030   9.981  20.343  68.844
42.  78 GS    Kinetic Motorsports               No Time

Be part of something big

Write a comment
Show comments
About this article
Series Grand-Am
Drivers Jim Click
Teams Kinetic Motorsports , Rehagen Racing , Turner Motorsport , Automatic Racing , Fall-Line Motorsports